Time;durP1;ratioP1;P1;durP2;ratioP2;P2;SDS_P1;SDS_P2;PMS_P1;PMS_P2;Temp;Humidity;BMP_temperature;BMP_pressure;BME280_temperature;BME280_humidity;BME280_pressure;Samples;Min_cycle;Max_cycle;Signal;HPM_P1;HPM_P2
2023/03/12 00:00:27;;;;;;;5.35;3.70;;;;;;;;;;5065034;28;20024;-52
2023/03/12 00:02:52;;;;;;;9.85;3.95;;;;;;;;;;5064812;28;20028;-50
2023/03/12 00:05:17;;;;;;;8.30;4.05;;;;;;;;;;5065266;28;20067;-52
2023/03/12 00:07:42;;;;;;;6.38;3.90;;;;;;;;;;5065213;28;20020;-49
2023/03/12 00:10:08;;;;;;;6.22;4.00;;;;;;;;;;5064654;28;20025;-49
2023/03/12 00:12:33;;;;;;;6.53;3.95;;;;;;;;;;5065350;28;20024;-51
2023/03/12 00:14:59;;;;;;;8.50;3.50;;;;;;;;;;5064986;28;20031;-49
2023/03/12 00:17:25;;;;;;;5.88;3.60;;;;;;;;;;5065185;28;20025;-50
2023/03/12 00:19:51;;;;;;;6.60;3.75;;;;;;;;;;5064835;28;20063;-49
2023/03/12 00:22:16;;;;;;;7.25;4.07;;;;;;;;;;5063720;28;20020;-48
2023/03/12 00:24:42;;;;;;;6.43;3.90;;;;;;;;;;5065174;28;20024;-50
2023/03/12 00:27:07;;;;;;;6.93;3.83;;;;;;;;;;5065411;28;20025;-53
2023/03/12 00:29:32;;;;;;;6.65;3.80;;;;;;;;;;5065466;28;20079;-51
2023/03/12 00:31:58;;;;;;;5.97;3.50;;;;;;;;;;5065064;28;20025;-53
2023/03/12 00:34:23;;;;;;;9.13;4.22;;;;;;;;;;5064901;28;20029;-49
2023/03/12 00:36:48;;;;;;;8.30;3.83;;;;;;;;;;5065438;28;20145;-55
2023/03/12 00:39:13;;;;;;;7.15;4.00;;;;;;;;;;5065064;28;20024;-50
2023/03/12 00:41:39;;;;;;;6.32;3.55;;;;;;;;;;5064825;28;20411;-49
2023/03/12 00:44:05;;;;;;;6.22;4.03;;;;;;;;;;5064760;28;20025;-50
2023/03/12 00:46:30;;;;;;;6.90;4.00;;;;;;;;;;5064943;28;20126;-50
2023/03/12 00:48:55;;;;;;;8.68;3.72;;;;;;;;;;5064643;28;20063;-50
2023/03/12 00:51:21;;;;;;;7.10;4.15;;;;;;;;;;5064698;28;20017;-48
2023/03/12 00:53:46;;;;;;;10.95;4.93;;;;;;;;;;5064629;28;20028;-53
2023/03/12 00:56:12;;;;;;;14.82;5.28;;;;;;;;;;5064833;28;20024;-50
2023/03/12 00:58:37;;;;;;;14.48;6.05;;;;;;;;;;5064650;28;20025;-51
2023/03/12 01:01:03;;;;;;;13.93;6.03;;;;;;;;;;5064725;28;20039;-53
2023/03/12 01:03:28;;;;;;;12.30;4.65;;;;;;;;;;5064486;28;20023;-48
2023/03/12 01:05:53;;;;;;;6.75;4.35;;;;;;;;;;5064905;28;20024;-52
2023/03/12 01:08:19;;;;;;;16.95;5.88;;;;;;;;;;5065131;28;20326;-51
2023/03/12 01:10:44;;;;;;;20.52;6.38;;;;;;;;;;5064662;28;20047;-50
2023/03/12 01:13:10;;;;;;;12.90;5.20;;;;;;;;;;5064417;28;20024;-52
2023/03/12 01:15:35;;;;;;;13.82;5.30;;;;;;;;;;5065171;28;20696;-51
2023/03/12 01:18:00;;;;;;;10.38;5.00;;;;;;;;;;5065008;28;20029;-51
2023/03/12 01:20:26;;;;;;;10.20;4.75;;;;;;;;;;5065056;28;20036;-50
2023/03/12 01:22:51;;;;;;;10.13;4.65;;;;;;;;;;5065918;28;20020;-52
2023/03/12 01:25:16;;;;;;;9.82;4.40;;;;;;;;;;5068185;28;20024;-55
2023/03/12 01:27:42;;;;;;;12.80;4.15;;;;;;;;;;5068383;28;20024;-53
2023/03/12 01:30:07;;;;;;;7.97;4.43;;;;;;;;;;5068809;28;20257;-52
2023/03/12 01:32:32;;;;;;;10.68;4.38;;;;;;;;;;5068634;28;20146;-49
2023/03/12 01:34:59;;;;;;;9.70;4.38;;;;;;;;;;5068440;28;20024;-50
2023/03/12 01:37:24;;;;;;;7.30;4.07;;;;;;;;;;5068358;28;20419;-52
2023/03/12 01:39:50;;;;;;;10.68;4.28;;;;;;;;;;5082461;28;20036;-49
2023/03/12 01:42:15;;;;;;;8.77;4.00;;;;;;;;;;5067994;28;20470;-53
2023/03/12 01:44:57;;;;;;;9.32;4.70;;;;;;;;;;5067479;28;20048;-52
2023/03/12 01:47:22;;;;;;;6.38;3.47;;;;;;;;;;5067964;28;20395;-53
2023/03/12 01:49:49;;;;;;;8.07;4.45;;;;;;;;;;5067629;28;20055;-48
2023/03/12 01:52:23;;;;;;;7.97;3.83;;;;;;;;;;5067686;28;20029;-53
2023/03/12 01:54:55;;;;;;;6.80;4.15;;;;;;;;;;5067463;28;20051;-51
2023/03/12 01:57:28;;;;;;;5.57;3.65;;;;;;;;;;5067027;28;20027;-51
2023/03/12 01:59:56;;;;;;;8.65;3.78;;;;;;;;;;5067521;28;20103;-52
2023/03/12 02:02:25;;;;;;;8.07;4.40;;;;;;;;;;5067469;28;20029;-49
2023/03/12 02:04:56;;;;;;;10.60;4.15;;;;;;;;;;5067798;28;20012;-48
2023/03/12 02:07:21;;;;;;;7.97;4.18;;;;;;;;;;5067208;28;20162;-51
2023/03/12 02:09:48;;;;;;;6.13;3.88;;;;;;;;;;5067167;28;20419;-53
2023/03/12 02:12:13;;;;;;;10.13;4.53;;;;;;;;;;5067169;28;20021;-50
2023/03/12 02:14:38;;;;;;;7.72;4.07;;;;;;;;;;5067374;28;20074;-50
2023/03/12 02:17:04;;;;;;;7.85;4.10;;;;;;;;;;5065756;28;20052;-49
2023/03/12 02:19:32;;;;;;;8.45;4.18;;;;;;;;;;5067106;28;20064;-51
2023/03/12 02:21:58;;;;;;;7.25;4.28;;;;;;;;;;5067637;28;20031;-51
2023/03/12 02:24:28;;;;;;;8.30;4.10;;;;;;;;;;5067062;28;20028;-54
2023/03/12 02:26:54;;;;;;;9.82;4.57;;;;;;;;;;5067404;28;20024;-51
2023/03/12 02:29:19;;;;;;;5.43;3.63;;;;;;;;;;5067398;28;20024;-51
2023/03/12 02:31:49;;;;;;;6.95;3.70;;;;;;;;;;5067429;28;20027;-53
2023/03/12 02:34:14;;;;;;;7.85;4.43;;;;;;;;;;5066780;28;20096;-52
2023/03/12 02:36:39;;;;;;;9.63;4.18;;;;;;;;;;5067295;28;20531;-55
2023/03/12 02:39:05;;;;;;;9.18;4.75;;;;;;;;;;5067137;28;20028;-53
2023/03/12 02:41:31;;;;;;;8.88;4.55;;;;;;;;;;5066859;28;20024;-49
2023/03/12 02:44:15;;;;;;;14.73;5.15;;;;;;;;;;5067316;28;20028;-49
2023/03/12 02:46:43;;;;;;;8.88;4.55;;;;;;;;;;5068615;28;20033;-51
2023/03/12 02:49:11;;;;;;;9.23;3.88;;;;;;;;;;5066692;28;20021;-49
2023/03/12 02:51:36;;;;;;;10.35;4.63;;;;;;;;;;5067051;28;20050;-48
2023/03/12 02:54:02;;;;;;;8.05;4.18;;;;;;;;;;5066956;28;20024;-51
2023/03/12 02:56:28;;;;;;;8.15;4.07;;;;;;;;;;5066732;28;20402;-53
2023/03/12 02:58:54;;;;;;;8.32;3.97;;;;;;;;;;5066196;28;20028;-47
2023/03/12 03:01:19;;;;;;;7.82;3.85;;;;;;;;;;5066234;28;20028;-53
2023/03/12 03:03:45;;;;;;;6.32;3.80;;;;;;;;;;5066435;28;20024;-51
2023/03/12 03:06:10;;;;;;;6.40;3.80;;;;;;;;;;5066612;28;20024;-52
2023/03/12 03:08:36;;;;;;;8.35;3.63;;;;;;;;;;5066528;28;20043;-49
2023/03/12 03:11:02;;;;;;;14.18;4.68;;;;;;;;;;5066462;28;20282;-47
2023/03/12 03:13:28;;;;;;;13.80;5.72;;;;;;;;;;5066273;28;20024;-52
2023/03/12 03:15:56;;;;;;;16.88;5.65;;;;;;;;;;5065952;28;20074;-52
2023/03/12 03:18:21;;;;;;;16.98;6.18;;;;;;;;;;5064396;28;20361;-53
2023/03/12 03:20:53;;;;;;;14.82;5.20;;;;;;;;;;5065824;28;20127;-54
2023/03/12 03:23:18;;;;;;;17.88;6.07;;;;;;;;;;5065760;28;20021;-53
2023/03/12 03:25:45;;;;;;;15.18;5.88;;;;;;;;;;5065792;28;20082;-52
2023/03/12 03:28:10;;;;;;;13.23;5.47;;;;;;;;;;5066122;28;20074;-51
2023/03/12 03:30:35;;;;;;;9.55;4.78;;;;;;;;;;5065886;28;20399;-54
2023/03/12 03:33:00;;;;;;;8.95;4.18;;;;;;;;;;5065726;28;20052;-53
2023/03/12 03:35:26;;;;;;;10.95;4.90;;;;;;;;;;5065919;28;20025;-52
2023/03/12 03:37:51;;;;;;;12.38;5.10;;;;;;;;;;5064477;28;20423;-52
2023/03/12 03:40:16;;;;;;;11.93;5.50;;;;;;;;;;5066563;28;20032;-54
2023/03/12 03:42:42;;;;;;;7.85;4.05;;;;;;;;;;5065993;28;20020;-52
2023/03/12 03:45:08;;;;;;;7.35;4.20;;;;;;;;;;5065036;28;20072;-54
2023/03/12 03:47:33;;;;;;;8.68;4.38;;;;;;;;;;5065536;28;20024;-54
2023/03/12 03:49:58;;;;;;;9.20;4.60;;;;;;;;;;5066386;28;20073;-54
2023/03/12 03:52:24;;;;;;;15.02;5.68;;;;;;;;;;5098365;28;20412;-49
2023/03/12 03:54:49;;;;;;;11.48;5.22;;;;;;;;;;5065775;28;20024;-51
2023/03/12 03:57:14;;;;;;;8.57;4.55;;;;;;;;;;5065801;28;20081;-48
2023/03/12 03:59:39;;;;;;;5.88;3.53;;;;;;;;;;5065973;28;20411;-52
2023/03/12 04:02:05;;;;;;;7.93;3.92;;;;;;;;;;5065940;28;20040;-50
2023/03/12 04:04:30;;;;;;;7.32;4.20;;;;;;;;;;5065570;28;20420;-54
2023/03/12 04:06:55;;;;;;;6.50;4.03;;;;;;;;;;5065696;28;20048;-55
2023/03/12 04:09:21;;;;;;;10.82;4.57;;;;;;;;;;5065502;28;20103;-47
2023/03/12 04:11:46;;;;;;;7.32;4.00;;;;;;;;;;5065288;28;20051;-51
2023/03/12 04:14:11;;;;;;;6.53;3.80;;;;;;;;;;5065815;28;20024;-50
2023/03/12 04:16:36;;;;;;;9.88;4.40;;;;;;;;;;5065805;28;20012;-47
2023/03/12 04:19:02;;;;;;;6.70;4.00;;;;;;;;;;5065193;28;20063;-48
2023/03/12 04:21:27;;;;;;;7.22;4.20;;;;;;;;;;5065289;28;20066;-48
2023/03/12 04:23:52;;;;;;;7.65;4.45;;;;;;;;;;5065500;28;20021;-50
2023/03/12 04:26:18;;;;;;;8.38;4.63;;;;;;;;;;5066021;28;20384;-50
2023/03/12 04:28:43;;;;;;;11.57;5.05;;;;;;;;;;5065418;28;20032;-50
2023/03/12 04:31:10;;;;;;;7.93;4.15;;;;;;;;;;5065432;28;20016;-54
2023/03/12 04:33:36;;;;;;;11.23;5.05;;;;;;;;;;5065185;28;20414;-53
2023/03/12 04:36:02;;;;;;;9.35;4.03;;;;;;;;;;5065581;28;20024;-49
2023/03/12 04:38:27;;;;;;;10.60;4.32;;;;;;;;;;5065264;28;20515;-53
2023/03/12 04:40:58;;;;;;;6.95;4.18;;;;;;;;;;5065451;28;20081;-52
2023/03/12 04:43:24;;;;;;;12.63;4.60;;;;;;;;;;5065145;28;20026;-50
2023/03/12 04:45:49;;;;;;;7.57;4.45;;;;;;;;;;5065271;28;20052;-51
2023/03/12 04:48:14;;;;;;;9.77;5.68;;;;;;;;;;5065723;28;20060;-48
2023/03/12 04:50:40;;;;;;;10.10;5.18;;;;;;;;;;5062823;28;20075;-50
2023/03/12 04:53:05;;;;;;;7.18;4.40;;;;;;;;;;5064935;28;20044;-49
2023/03/12 04:55:30;;;;;;;10.55;5.40;;;;;;;;;;5065229;28;20020;-53
2023/03/12 04:57:56;;;;;;;7.03;4.65;;;;;;;;;;5068115;28;20032;-50
2023/03/12 05:00:21;;;;;;;8.98;5.35;;;;;;;;;;5068951;28;20099;-53
2023/03/12 05:02:46;;;;;;;11.60;6.05;;;;;;;;;;5069017;28;20035;-49
2023/03/12 05:05:12;;;;;;;12.38;6.22;;;;;;;;;;5068730;28;20091;-46
2023/03/12 05:07:37;;;;;;;9.43;5.13;;;;;;;;;;5069022;28;20029;-52
2023/03/12 05:10:03;;;;;;;10.13;5.57;;;;;;;;;;5069120;28;20045;-52
2023/03/12 05:12:28;;;;;;;13.13;6.10;;;;;;;;;;5069222;28;20406;-53
2023/03/12 05:14:53;;;;;;;8.30;5.30;;;;;;;;;;5068770;28;20062;-52
2023/03/12 05:17:19;;;;;;;9.90;4.88;;;;;;;;;;5068505;28;20428;-51
2023/03/12 05:19:44;;;;;;;12.35;5.75;;;;;;;;;;5068664;28;20455;-51
2023/03/12 05:22:09;;;;;;;10.02;5.45;;;;;;;;;;5069051;28;20028;-52
2023/03/12 05:24:34;;;;;;;11.73;5.80;;;;;;;;;;5068747;28;20071;-49
2023/03/12 05:27:00;;;;;;;10.98;5.70;;;;;;;;;;5083160;28;20059;-50
2023/03/12 05:29:25;;;;;;;9.55;5.50;;;;;;;;;;5068803;28;20020;-52
2023/03/12 05:31:50;;;;;;;10.20;5.50;;;;;;;;;;5068292;28;20396;-52
2023/03/12 05:34:16;;;;;;;11.98;6.25;;;;;;;;;;5068702;28;20500;-50
2023/03/12 05:36:41;;;;;;;11.65;6.55;;;;;;;;;;5067150;28;20029;-51
2023/03/12 05:39:06;;;;;;;10.00;6.10;;;;;;;;;;5068518;28;20054;-49
2023/03/12 05:41:31;;;;;;;13.90;6.78;;;;;;;;;;5068455;28;20362;-51
2023/03/12 05:43:57;;;;;;;15.27;7.55;;;;;;;;;;5068378;28;20027;-51
2023/03/12 05:46:23;;;;;;;13.70;6.88;;;;;;;;;;5067959;28;20059;-54
2023/03/12 05:48:48;;;;;;;11.00;5.80;;;;;;;;;;5068296;28;20435;-48
2023/03/12 05:51:14;;;;;;;11.48;6.25;;;;;;;;;;5068137;28;20025;-47
2023/03/12 05:53:39;;;;;;;13.95;6.22;;;;;;;;;;5067830;28;20024;-50
2023/03/12 05:56:06;;;;;;;11.70;6.18;;;;;;;;;;5082535;28;20036;-51
2023/03/12 05:58:32;;;;;;;10.07;5.68;;;;;;;;;;5067834;28;20384;-50
2023/03/12 06:00:58;;;;;;;12.43;6.30;;;;;;;;;;5067532;28;20536;-49
2023/03/12 06:03:23;;;;;;;12.65;6.35;;;;;;;;;;5067687;28;20028;-54
2023/03/12 06:05:49;;;;;;;11.98;6.45;;;;;;;;;;5067710;28;20025;-50
2023/03/12 06:08:14;;;;;;;12.32;5.90;;;;;;;;;;5066961;28;20018;-53
2023/03/12 06:10:39;;;;;;;13.68;6.35;;;;;;;;;;5067691;28;20021;-52
2023/03/12 06:13:05;;;;;;;11.98;5.97;;;;;;;;;;5067588;28;20021;-48
2023/03/12 06:15:30;;;;;;;12.00;6.32;;;;;;;;;;5067265;28;20020;-52
2023/03/12 06:17:55;;;;;;;12.32;6.63;;;;;;;;;;5067221;28;20039;-53
2023/03/12 06:20:21;;;;;;;10.93;6.18;;;;;;;;;;5067569;28;20028;-50
2023/03/12 06:22:46;;;;;;;14.05;6.68;;;;;;;;;;5067458;28;20051;-52
2023/03/12 06:25:11;;;;;;;11.90;6.40;;;;;;;;;;5067315;28;20023;-49
2023/03/12 06:27:37;;;;;;;11.40;6.28;;;;;;;;;;5066305;28;20033;-48
2023/03/12 06:30:03;;;;;;;10.60;6.10;;;;;;;;;;5067383;28;20021;-51
2023/03/12 06:32:29;;;;;;;11.60;6.50;;;;;;;;;;5067199;28;20035;-55
2023/03/12 06:34:54;;;;;;;11.20;5.95;;;;;;;;;;5067027;28;20116;-50
2023/03/12 06:37:19;;;;;;;12.60;6.30;;;;;;;;;;5067125;28;20024;-52
2023/03/12 06:39:44;;;;;;;12.15;7.40;;;;;;;;;;5067155;28;20082;-53
2023/03/12 06:42:11;;;;;;;11.48;5.57;;;;;;;;;;5066872;28;20044;-51
2023/03/12 06:44:37;;;;;;;11.45;6.97;;;;;;;;;;5066821;28;20040;-52
2023/03/12 06:47:02;;;;;;;10.93;6.63;;;;;;;;;;5066823;28;20042;-51
2023/03/12 06:49:31;;;;;;;11.80;6.38;;;;;;;;;;5066837;28;20032;-52
2023/03/12 06:51:56;;;;;;;10.67;6.03;;;;;;;;;;5067049;28;20115;-51
2023/03/12 06:54:21;;;;;;;8.88;6.50;;;;;;;;;;5066506;28;20107;-51
2023/03/12 06:56:46;;;;;;;10.73;6.35;;;;;;;;;;5066786;28;20021;-53
2023/03/12 06:59:12;;;;;;;7.25;5.47;;;;;;;;;;5064091;28;20123;-53
2023/03/12 07:01:37;;;;;;;9.35;5.57;;;;;;;;;;5066489;28;20111;-53
2023/03/12 07:04:02;;;;;;;8.32;5.68;;;;;;;;;;5066578;28;20028;-51
2023/03/12 07:06:28;;;;;;;8.00;5.28;;;;;;;;;;5066678;28;20023;-49
2023/03/12 07:08:53;;;;;;;8.50;5.28;;;;;;;;;;5066941;28;20040;-53
2023/03/12 07:11:18;;;;;;;7.65;5.28;;;;;;;;;;5066664;28;20459;-53
2023/03/12 07:13:44;;;;;;;6.63;5.10;;;;;;;;;;5066569;28;20024;-49
2023/03/12 07:16:10;;;;;;;7.53;5.22;;;;;;;;;;5066150;28;20147;-51
2023/03/12 07:18:35;;;;;;;9.55;5.85;;;;;;;;;;5066050;28;20021;-48
2023/03/12 07:21:00;;;;;;;7.55;5.22;;;;;;;;;;5066198;28;20553;-53
2023/03/12 07:23:26;;;;;;;8.75;5.75;;;;;;;;;;5066539;28;20012;-53
2023/03/12 07:25:51;;;;;;;9.73;5.80;;;;;;;;;;5066403;28;20024;-55
2023/03/12 07:28:17;;;;;;;8.25;5.78;;;;;;;;;;5066249;28;20491;-52
2023/03/12 07:30:49;;;;;;;7.03;5.35;;;;;;;;;;5066022;28;20021;-51
2023/03/12 07:33:14;;;;;;;8.27;5.40;;;;;;;;;;5066579;28;20030;-52
2023/03/12 07:35:39;;;;;;;7.85;5.13;;;;;;;;;;5066263;28;20024;-53
2023/03/12 07:38:04;;;;;;;7.00;5.18;;;;;;;;;;5065938;28;20030;-51
2023/03/12 07:40:30;;;;;;;8.95;5.70;;;;;;;;;;5066326;28;20016;-49
2023/03/12 07:42:55;;;;;;;8.85;5.30;;;;;;;;;;5066296;28;20024;-52
2023/03/12 07:45:21;;;;;;;7.07;5.07;;;;;;;;;;5066174;28;20041;-49
2023/03/12 07:47:46;;;;;;;7.70;5.03;;;;;;;;;;5065718;28;20109;-53
2023/03/12 07:50:14;;;;;;;9.50;5.00;;;;;;;;;;5079219;28;20044;-52
2023/03/12 07:52:39;;;;;;;8.88;5.28;;;;;;;;;;5065118;28;20051;-48
2023/03/12 07:55:05;;;;;;;9.32;4.80;;;;;;;;;;5064906;28;20033;-51
2023/03/12 07:57:31;;;;;;;8.45;5.07;;;;;;;;;;5064981;28;20036;-52
2023/03/12 07:59:56;;;;;;;7.28;5.18;;;;;;;;;;5064886;28;20033;-49
2023/03/12 08:02:21;;;;;;;8.07;5.32;;;;;;;;;;5065395;28;20056;-56
2023/03/12 08:04:46;;;;;;;8.02;4.75;;;;;;;;;;5065807;28;20032;-52
2023/03/12 08:07:12;;;;;;;6.97;4.70;;;;;;;;;;5065828;28;20020;-49
2023/03/12 08:09:38;;;;;;;8.55;4.65;;;;;;;;;;5065572;28;20108;-52
2023/03/12 08:12:04;;;;;;;8.32;4.88;;;;;;;;;;5065440;28;20226;-50
2023/03/12 08:14:30;;;;;;;6.97;4.32;;;;;;;;;;5065872;28;20024;-54
2023/03/12 08:16:56;;;;;;;6.85;4.57;;;;;;;;;;5065453;28;20472;-52
2023/03/12 08:19:21;;;;;;;7.32;4.53;;;;;;;;;;5065243;28;20060;-55
2023/03/12 08:21:47;;;;;;;4.72;3.95;;;;;;;;;;5079860;28;20025;-50
2023/03/12 08:24:12;;;;;;;6.88;4.10;;;;;;;;;;5065561;28;20052;-53
2023/03/12 08:26:37;;;;;;;5.30;3.75;;;;;;;;;;5065312;28;20082;-52
2023/03/12 08:29:03;;;;;;;4.38;3.30;;;;;;;;;;5065485;28;20028;-50
2023/03/12 08:31:28;;;;;;;4.70;3.63;;;;;;;;;;5063646;28;20523;-53
2023/03/12 08:33:53;;;;;;;4.90;3.67;;;;;;;;;;5069334;28;20024;-53
2023/03/12 08:36:18;;;;;;;5.20;3.85;;;;;;;;;;5069321;28;20458;-55
2023/03/12 08:38:44;;;;;;;5.82;4.25;;;;;;;;;;5069263;28;20451;-49
2023/03/12 08:41:09;;;;;;;6.65;4.30;;;;;;;;;;5069467;28;20166;-52
2023/03/12 08:43:35;;;;;;;7.05;4.15;;;;;;;;;;5069299;28;20049;-50
2023/03/12 08:46:01;;;;;;;5.75;4.25;;;;;;;;;;5068800;28;20048;-51
2023/03/12 08:48:27;;;;;;;4.82;3.90;;;;;;;;;;5069271;28;20037;-50
2023/03/12 08:51:02;;;;;;;5.68;3.97;;;;;;;;;;5069107;28;20021;-52
2023/03/12 08:53:28;;;;;;;6.75;4.18;;;;;;;;;;5068821;28;20028;-51
2023/03/12 08:55:54;;;;;;;5.13;3.55;;;;;;;;;;5068732;28;20021;-52
2023/03/12 08:58:20;;;;;;;6.28;3.60;;;;;;;;;;5068743;28;20033;-53
2023/03/12 09:00:45;;;;;;;5.95;3.55;;;;;;;;;;5068775;28;20048;-53
2023/03/12 09:03:13;;;;;;;4.53;3.38;;;;;;;;;;5068357;28;20021;-52
2023/03/12 09:05:39;;;;;;;7.10;4.03;;;;;;;;;;5068620;28;20077;-55
2023/03/12 09:08:04;;;;;;;3.53;2.90;;;;;;;;;;5068451;28;20462;-53
2023/03/12 09:10:30;;;;;;;5.22;3.97;;;;;;;;;;5068406;28;20055;-53
2023/03/12 09:12:55;;;;;;;6.20;4.20;;;;;;;;;;5068420;28;20511;-48
2023/03/12 09:15:20;;;;;;;6.25;3.92;;;;;;;;;;5068306;28;20029;-53
2023/03/12 09:17:46;;;;;;;4.53;2.95;;;;;;;;;;5068055;28;20490;-53
2023/03/12 09:20:15;;;;;;;5.55;3.20;;;;;;;;;;5067940;28;20067;-50
2023/03/12 09:22:41;;;;;;;7.07;3.15;;;;;;;;;;5068072;28;20048;-51
2023/03/12 09:25:07;;;;;;;8.90;4.15;;;;;;;;;;5067952;28;20514;-51
2023/03/12 09:27:37;;;;;;;5.63;3.70;;;;;;;;;;5099508;28;20476;-51
2023/03/12 09:30:02;;;;;;;;;;;;;;;;;;5068450;28;20542;-49
2023/03/12 09:32:27;;;;;;;6.50;3.92;;;;;;;;;;5068171;28;19901;-52
2023/03/12 09:34:53;;;;;;;7.00;3.63;;;;;;;;;;5067782;28;20464;-49
2023/03/12 09:37:18;;;;;;;7.30;4.05;;;;;;;;;;5067642;28;20032;-55
2023/03/12 09:39:43;;;;;;;5.43;4.03;;;;;;;;;;5067655;28;20533;-53
2023/03/12 09:42:17;;;;;;;6.43;4.10;;;;;;;;;;5099490;28;20545;-51
2023/03/12 09:44:44;;;;;;;5.55;3.78;;;;;;;;;;5066482;28;20049;-53
2023/03/12 09:47:24;;;;;;;5.50;3.60;;;;;;;;;;5067756;28;20705;-53
2023/03/12 09:49:53;;;;;;;5.75;4.32;;;;;;;;;;5067359;28;20012;-53
2023/03/12 09:52:24;;;;;;;8.55;4.40;;;;;;;;;;5067771;28;20046;-49
2023/03/12 09:55:01;;;;;;;4.30;3.45;;;;;;;;;;5067826;28;20025;-54
2023/03/12 09:57:28;;;;;;;5.00;3.83;;;;;;;;;;5067595;28;20028;-50
2023/03/12 09:59:54;;;;;;;5.85;4.00;;;;;;;;;;5067066;28;20500;-52
2023/03/12 10:02:38;;;;;;;5.28;4.20;;;;;;;;;;5067526;28;20078;-53
2023/03/12 10:05:09;;;;;;;7.07;4.25;;;;;;;;;;5067357;28;20027;-52
2023/03/12 10:07:39;;;;;;;5.65;4.15;;;;;;;;;;5067486;28;20454;-53
2023/03/12 10:10:07;;;;;;;7.15;3.92;;;;;;;;;;5066866;28;20059;-49
2023/03/12 10:12:48;;;;;;;5.25;4.25;;;;;;;;;;5067620;28;20086;-50
2023/03/12 10:15:16;;;;;;;7.78;4.85;;;;;;;;;;5066815;28;20036;-50
2023/03/12 10:18:01;;;;;;;8.32;4.35;;;;;;;;;;5067226;28;20305;-50
2023/03/12 10:20:36;;;;;;;5.13;4.13;;;;;;;;;;5066616;28;20484;-52
2023/03/12 10:23:02;;;;;;;5.57;4.07;;;;;;;;;;5066865;28;20393;-55
2023/03/12 10:25:27;;;;;;;5.50;4.20;;;;;;;;;;5066579;28;20024;-54
2023/03/12 10:27:53;;;;;;;6.55;4.80;;;;;;;;;;5066857;28;20086;-53
2023/03/12 10:30:22;;;;;;;8.05;5.30;;;;;;;;;;5067199;28;20021;-53
2023/03/12 10:32:53;;;;;;;8.45;5.50;;;;;;;;;;5065537;28;20020;-52
2023/03/12 10:35:22;;;;;;;7.13;5.05;;;;;;;;;;5067322;28;20032;-50
2023/03/12 10:37:47;;;;;;;7.72;4.88;;;;;;;;;;5066753;28;20032;-49
2023/03/12 10:40:23;;;;;;;8.70;5.38;;;;;;;;;;5066476;28;20376;-50
2023/03/12 10:42:48;;;;;;;7.55;5.00;;;;;;;;;;5066960;28;20082;-53
2023/03/12 10:45:27;;;;;;;8.55;5.60;;;;;;;;;;5066314;28;20048;-55
2023/03/12 10:47:57;;;;;;;7.97;5.20;;;;;;;;;;5066280;28;20063;-52
2023/03/12 10:50:24;;;;;;;5.88;4.13;;;;;;;;;;5080868;28;20033;-51
2023/03/12 10:52:51;;;;;;;6.13;4.13;;;;;;;;;;5066213;28;20057;-51
2023/03/12 10:55:19;;;;;;;6.03;4.10;;;;;;;;;;5065956;28;20032;-52
2023/03/12 10:57:45;;;;;;;5.83;4.40;;;;;;;;;;5066307;28;20408;-52
2023/03/12 11:00:16;;;;;;;10.57;5.00;;;;;;;;;;5066141;28;20013;-52
2023/03/12 11:02:45;;;;;;;8.77;4.90;;;;;;;;;;5066270;28;20086;-57
2023/03/12 11:05:18;;;;;;;10.23;4.65;;;;;;;;;;5065690;28;20104;-55
2023/03/12 11:07:43;;;;;;;9.15;4.47;;;;;;;;;;5065462;28;20077;-52
2023/03/12 11:10:09;;;;;;;7.53;4.10;;;;;;;;;;5095065;28;20036;-50
2023/03/12 11:12:35;;;;;;;6.50;3.88;;;;;;;;;;5065308;28;20025;-51
2023/03/12 11:15:19;;;;;;;15.48;4.63;;;;;;;;;;5063602;28;20349;-49
2023/03/12 11:17:45;;;;;;;5.00;4.07;;;;;;;;;;5065104;28;20123;-49
2023/03/12 11:20:29;;;;;;;6.75;3.67;;;;;;;;;;5065126;28;20108;-51
2023/03/12 11:22:54;;;;;;;5.45;3.58;;;;;;;;;;5065726;28;20032;-55
2023/03/12 11:25:21;;;;;;;4.82;3.95;;;;;;;;;;5065284;28;20098;-55
2023/03/12 11:27:49;;;;;;;4.38;3.35;;;;;;;;;;5065316;28;20028;-57
2023/03/12 11:30:16;;;;;;;9.45;3.83;;;;;;;;;;5064946;28;20380;-52
2023/03/12 11:32:46;;;;;;;6.35;3.65;;;;;;;;;;5063283;28;20029;-51
2023/03/12 11:35:14;;;;;;;7.03;4.18;;;;;;;;;;5077913;28;20040;-54
2023/03/12 11:38:00;;;;;;;4.80;3.60;;;;;;;;;;5060891;28;20047;-54
2023/03/12 11:40:43;;;;;;;6.63;4.47;;;;;;;;;;5064519;28;20039;-54
2023/03/12 11:43:24;;;;;;;7.50;4.40;;;;;;;;;;5065052;28;20108;-54
2023/03/12 11:45:59;;;;;;;6.93;4.78;;;;;;;;;;5079338;28;20048;-53
2023/03/12 11:48:31;;;;;;;6.10;4.57;;;;;;;;;;5064974;28;20085;-55
2023/03/12 11:50:56;;;;;;;7.63;4.75;;;;;;;;;;5065123;28;20413;-54
2023/03/12 11:53:42;;;;;;;6.03;4.63;;;;;;;;;;5064216;28;20033;-53
2023/03/12 11:56:19;;;;;;;6.60;3.95;;;;;;;;;;5040187;28;20298;-53
2023/03/12 11:58:44;;;;;;;6.68;4.38;;;;;;;;;;5040387;28;20262;-51
2023/03/12 12:01:27;;;;;;;7.20;4.22;;;;;;;;;;5040297;28;20029;-54
2023/03/12 12:03:53;;;;;;;8.80;3.75;;;;;;;;;;5042004;28;20021;-50
2023/03/12 12:06:42;;;;;;;7.40;4.60;;;;;;;;;;5041108;28;20021;-50
2023/03/12 12:09:12;;;;;;;6.93;5.00;;;;;;;;;;5041818;28;20278;-53
2023/03/12 12:11:56;;;;;;;6.47;4.90;;;;;;;;;;5041930;28;20040;-52
2023/03/12 12:14:33;;;;;;;8.85;4.72;;;;;;;;;;5041797;28;20455;-52
2023/03/12 12:17:01;;;;;;;6.63;5.00;;;;;;;;;;5041777;28;20374;-53
2023/03/12 12:19:45;;;;;;;13.05;5.05;;;;;;;;;;5041464;28;20072;-52
2023/03/12 12:22:21;;;;;;;7.30;4.32;;;;;;;;;;5041864;28;20100;-54
2023/03/12 12:24:53;;;;;;;6.25;4.75;;;;;;;;;;5041758;28;20811;-51
2023/03/12 12:27:24;;;;;;;8.85;4.75;;;;;;;;;;5041642;28;20033;-52
2023/03/12 12:30:01;;;;;;;6.85;4.18;;;;;;;;;;5041650;28;20032;-50
2023/03/12 12:32:47;;;;;;;4.85;4.07;;;;;;;;;;5045353;28;20106;-51
2023/03/12 12:35:18;;;;;;;5.85;4.25;;;;;;;;;;5064390;28;20024;-54
2023/03/12 12:37:47;;;;;;;7.10;4.45;;;;;;;;;;5064421;28;20535;-56
2023/03/12 12:40:19;;;;;;;9.00;4.45;;;;;;;;;;5063213;28;20481;-53
2023/03/12 12:43:04;;;;;;;7.93;5.43;;;;;;;;;;5064758;28;20118;-54
2023/03/12 12:45:30;;;;;;;7.97;5.07;;;;;;;;;;5041192;28;20083;-54
2023/03/12 12:48:01;;;;;;;6.78;4.65;;;;;;;;;;5041477;28;20049;-53
2023/03/12 12:50:29;;;;;;;8.02;4.95;;;;;;;;;;5041439;28;20064;-54
2023/03/12 12:53:09;;;;;;;6.65;4.68;;;;;;;;;;5041627;28;20384;-55
2023/03/12 12:56:01;;;;;;;6.07;4.18;;;;;;;;;;5041474;28;20036;-55
2023/03/12 12:58:38;;;;;;;7.60;5.25;;;;;;;;;;4943570;28;20043;-51
2023/03/12 13:01:04;;;;;;;7.28;4.72;;;;;;;;;;4943540;28;20023;-52
2023/03/12 13:03:29;;;;;;;9.18;5.45;;;;;;;;;;4943707;28;20086;-53
2023/03/12 13:06:00;;;;;;;6.60;4.60;;;;;;;;;;4911559;29;20102;-54
2023/03/12 13:08:35;;;;;;;9.20;5.22;;;;;;;;;;4927646;29;20639;-51
2023/03/12 13:11:23;;;;;;;10.32;5.18;;;;;;;;;;4943459;28;20376;-53
2023/03/12 13:14:03;;;;;;;5.90;3.90;;;;;;;;;;4886560;29;20043;-54
2023/03/12 13:16:35;;;;;;;5.72;4.20;;;;;;;;;;4886652;29;20040;-52
2023/03/12 13:19:03;;;;;;;5.78;4.25;;;;;;;;;;4889131;29;20037;-54
2023/03/12 13:21:52;;;;;;;5.63;4.07;;;;;;;;;;4890292;29;20096;-53
2023/03/12 13:24:30;;;;;;;7.75;4.82;;;;;;;;;;4909152;29;20032;-51
2023/03/12 13:27:31;;;;;;;6.43;4.57;;;;;;;;;;4908914;29;20032;-51
2023/03/12 13:29:57;;;;;;;5.10;4.32;;;;;;;;;;4871596;29;20037;-53
2023/03/12 13:32:36;;;;;;;6.53;4.30;;;;;;;;;;4871295;29;20177;-53
2023/03/12 13:35:06;;;;;;;7.82;4.00;;;;;;;;;;4893233;29;20063;-51
2023/03/12 13:38:00;;;;;;;5.82;4.68;;;;;;;;;;4927628;29;20070;-54
2023/03/12 13:40:28;;;;;;;5.38;4.22;;;;;;;;;;4946875;29;20118;-54
2023/03/12 13:43:13;;;;;;;5.63;4.60;;;;;;;;;;4946508;29;20360;-53
2023/03/12 13:45:54;;;;;;;6.53;4.75;;;;;;;;;;4946175;29;20047;-55
2023/03/12 13:48:20;;;;;;;6.20;4.13;;;;;;;;;;4930512;29;20066;-53
2023/03/12 13:50:50;;;;;;;7.97;4.68;;;;;;;;;;4972695;28;20115;-51
2023/03/12 13:53:21;;;;;;;6.25;4.30;;;;;;;;;;5004808;28;20032;-52
2023/03/12 13:55:49;;;;;;;6.55;4.35;;;;;;;;;;5004590;28;20034;-53
2023/03/12 13:58:20;;;;;;;6.03;4.60;;;;;;;;;;5004708;28;20057;-55
2023/03/12 14:00:45;;;;;;;6.13;3.88;;;;;;;;;;5004807;28;20026;-51
2023/03/12 14:03:14;;;;;;;5.25;3.80;;;;;;;;;;5018697;28;20043;-51
2023/03/12 14:05:58;;;;;;;4.22;3.28;;;;;;;;;;5084444;28;20044;-53
2023/03/12 14:08:23;;;;;;;4.85;3.30;;;;;;;;;;5084471;28;20039;-54
2023/03/12 14:11:07;;;;;;;8.32;3.42;;;;;;;;;;5084344;28;20024;-52
2023/03/12 14:13:35;;;;;;;4.78;3.45;;;;;;;;;;5084147;28;20077;-54
2023/03/12 14:16:18;;;;;;;4.18;3.03;;;;;;;;;;5081604;28;20116;-54
2023/03/12 14:18:44;;;;;;;4.43;3.20;;;;;;;;;;5066342;28;20031;-51
2023/03/12 14:21:13;;;;;;;4.82;3.25;;;;;;;;;;5066476;28;20031;-53
2023/03/12 14:23:42;;;;;;;5.57;3.72;;;;;;;;;;5066463;28;20021;-50
2023/03/12 14:26:15;;;;;;;4.93;3.50;;;;;;;;;;5080898;28;20044;-54
2023/03/12 14:28:41;;;;;;;3.90;2.75;;;;;;;;;;5066630;28;20029;-51
2023/03/12 14:31:12;;;;;;;4.15;3.00;;;;;;;;;;5066455;28;20036;-52
2023/03/12 14:33:46;;;;;;;6.70;3.25;;;;;;;;;;5067322;28;20025;-50
2023/03/12 14:36:13;;;;;;;4.22;3.25;;;;;;;;;;5067258;28;20029;-53
2023/03/12 14:38:41;;;;;;;6.60;3.55;;;;;;;;;;5067456;28;20268;-52
2023/03/12 14:41:13;;;;;;;5.25;2.88;;;;;;;;;;5067325;28;20040;-53
2023/03/12 14:43:39;;;;;;;5.88;3.33;;;;;;;;;;5065971;28;20074;-54
2023/03/12 14:46:12;;;;;;;5.15;3.78;;;;;;;;;;5067478;28;20109;-50